sensor_id;sensor_type;location;lat;lon;timestamp;P1;durP1;ratioP1;P2;durP2;ratioP2
75798;SDS011;65035;44.726;37.764;2023-02-02T00:00:45;2.95;;;2.30;;
75798;SDS011;65035;44.726;37.764;2023-02-02T00:01:49;3.83;;;1.98;;
75798;SDS011;65035;44.726;37.764;2023-02-02T00:02:53;4.15;;;1.85;;
75798;SDS011;65035;44.726;37.764;2023-02-02T00:03:56;3.53;;;2.10;;
75798;SDS011;65035;44.726;37.764;2023-02-02T00:06:03;3.88;;;1.60;;
75798;SDS011;65035;44.726;37.764;2023-02-02T00:07:07;3.33;;;2.00;;
75798;SDS011;65035;44.726;37.764;2023-02-02T00:08:10;3.25;;;1.88;;
75798;SDS011;65035;44.726;37.764;2023-02-02T00:09:14;3.10;;;1.50;;
75798;SDS011;65035;44.726;37.764;2023-02-02T00:10:18;3.78;;;2.55;;
75798;SDS011;65035;44.726;37.764;2023-02-02T00:11:20;3.50;;;1.95;;
75798;SDS011;65035;44.726;37.764;2023-02-02T00:12:23;2.63;;;1.35;;
75798;SDS011;65035;44.726;37.764;2023-02-02T00:13:26;4.68;;;2.30;;
75798;SDS011;65035;44.726;37.764;2023-02-02T00:14:29;2.80;;;1.75;;
75798;SDS011;65035;44.726;37.764;2023-02-02T00:15:31;4.10;;;2.15;;
75798;SDS011;65035;44.726;37.764;2023-02-02T00:16:35;3.67;;;1.73;;
75798;SDS011;65035;44.726;37.764;2023-02-02T00:17:43;3.65;;;2.40;;
75798;SDS011;65035;44.726;37.764;2023-02-02T00:18:45;3.50;;;1.42;;
75798;SDS011;65035;44.726;37.764;2023-02-02T00:19:50;3.67;;;2.13;;
75798;SDS011;65035;44.726;37.764;2023-02-02T00:20:52;3.03;;;2.08;;
75798;SDS011;65035;44.726;37.764;2023-02-02T00:21:55;2.90;;;1.40;;
75798;SDS011;65035;44.726;37.764;2023-02-02T00:24:01;3.28;;;2.45;;
75798;SDS011;65035;44.726;37.764;2023-02-02T00:25:04;3.33;;;1.70;;
75798;SDS011;65035;44.726;37.764;2023-02-02T00:26:07;3.30;;;1.98;;
75798;SDS011;65035;44.726;37.764;2023-02-02T00:27:10;3.05;;;1.73;;
75798;SDS011;65035;44.726;37.764;2023-02-02T00:28:13;4.25;;;1.85;;
75798;SDS011;65035;44.726;37.764;2023-02-02T00:29:17;2.78;;;1.45;;
75798;SDS011;65035;44.726;37.764;2023-02-02T00:30:22;3.25;;;1.65;;
75798;SDS011;65035;44.726;37.764;2023-02-02T00:31:24;3.15;;;2.00;;
75798;SDS011;65035;44.726;37.764;2023-02-02T00:32:27;2.95;;;1.73;;
75798;SDS011;65035;44.726;37.764;2023-02-02T00:33:30;3.47;;;1.92;;
75798;SDS011;65035;44.726;37.764;2023-02-02T00:34:33;3.20;;;1.60;;
75798;SDS011;65035;44.726;37.764;2023-02-02T00:35:38;2.75;;;1.45;;
75798;SDS011;65035;44.726;37.764;2023-02-02T00:36:42;3.13;;;1.75;;
75798;SDS011;65035;44.726;37.764;2023-02-02T00:38:48;3.10;;;1.45;;
75798;SDS011;65035;44.726;37.764;2023-02-02T00:39:51;3.17;;;1.65;;
75798;SDS011;65035;44.726;37.764;2023-02-02T00:40:54;2.90;;;1.65;;
75798;SDS011;65035;44.726;37.764;2023-02-02T00:41:57;2.90;;;1.42;;
75798;SDS011;65035;44.726;37.764;2023-02-02T00:43:00;3.50;;;1.58;;
75798;SDS011;65035;44.726;37.764;2023-02-02T00:44:02;3.35;;;2.03;;
75798;SDS011;65035;44.726;37.764;2023-02-02T00:45:24;3.15;;;1.27;;
75798;SDS011;65035;44.726;37.764;2023-02-02T00:47:30;3.35;;;1.40;;
75798;SDS011;65035;44.726;37.764;2023-02-02T00:48:33;3.13;;;0.98;;
75798;SDS011;65035;44.726;37.764;2023-02-02T00:49:36;3.05;;;1.80;;
75798;SDS011;65035;44.726;37.764;2023-02-02T00:50:38;3.13;;;1.38;;
75798;SDS011;65035;44.726;37.764;2023-02-02T00:51:41;3.33;;;2.60;;
75798;SDS011;65035;44.726;37.764;2023-02-02T00:52:44;3.53;;;1.88;;
75798;SDS011;65035;44.726;37.764;2023-02-02T00:53:48;3.60;;;1.70;;
75798;SDS011;65035;44.726;37.764;2023-02-02T00:55:55;3.17;;;1.38;;
75798;SDS011;65035;44.726;37.764;2023-02-02T00:56:57;3.38;;;1.95;;
75798;SDS011;65035;44.726;37.764;2023-02-02T00:58:00;2.97;;;1.55;;
75798;SDS011;65035;44.726;37.764;2023-02-02T00:59:03;2.58;;;1.30;;
75798;SDS011;65035;44.726;37.764;2023-02-02T01:00:06;2.60;;;1.50;;
75798;SDS011;65035;44.726;37.764;2023-02-02T01:01:16;3.67;;;1.35;;
75798;SDS011;65035;44.726;37.764;2023-02-02T01:02:22;2.40;;;1.08;;
75798;SDS011;65035;44.726;37.764;2023-02-02T01:03:25;3.65;;;1.98;;
75798;SDS011;65035;44.726;37.764;2023-02-02T01:04:27;3.42;;;1.73;;
75798;SDS011;65035;44.726;37.764;2023-02-02T01:05:32;2.67;;;1.40;;
75798;SDS011;65035;44.726;37.764;2023-02-02T01:06:35;3.30;;;1.52;;
75798;SDS011;65035;44.726;37.764;2023-02-02T01:07:38;3.15;;;1.83;;
75798;SDS011;65035;44.726;37.764;2023-02-02T01:09:44;3.70;;;1.58;;
75798;SDS011;65035;44.726;37.764;2023-02-02T01:10:47;3.03;;;1.73;;
75798;SDS011;65035;44.726;37.764;2023-02-02T01:11:50;2.50;;;1.35;;
75798;SDS011;65035;44.726;37.764;2023-02-02T01:12:52;2.90;;;1.27;;
75798;SDS011;65035;44.726;37.764;2023-02-02T01:13:55;3.35;;;1.48;;
75798;SDS011;65035;44.726;37.764;2023-02-02T01:14:58;2.55;;;1.48;;
75798;SDS011;65035;44.726;37.764;2023-02-02T01:16:01;2.80;;;1.42;;
75798;SDS011;65035;44.726;37.764;2023-02-02T01:17:05;3.10;;;2.00;;
75798;SDS011;65035;44.726;37.764;2023-02-02T01:18:08;2.60;;;1.05;;
75798;SDS011;65035;44.726;37.764;2023-02-02T01:19:14;3.53;;;1.35;;
75798;SDS011;65035;44.726;37.764;2023-02-02T01:20:18;2.58;;;1.13;;
75798;SDS011;65035;44.726;37.764;2023-02-02T01:21:21;3.03;;;1.60;;
75798;SDS011;65035;44.726;37.764;2023-02-02T01:22:24;3.13;;;1.45;;
75798;SDS011;65035;44.726;37.764;2023-02-02T01:23:27;2.50;;;1.35;;
75798;SDS011;65035;44.726;37.764;2023-02-02T01:24:31;2.92;;;1.63;;
75798;SDS011;65035;44.726;37.764;2023-02-02T01:25:34;2.30;;;1.27;;
75798;SDS011;65035;44.726;37.764;2023-02-02T01:26:39;2.88;;;1.55;;
75798;SDS011;65035;44.726;37.764;2023-02-02T01:27:42;2.70;;;1.27;;
75798;SDS011;65035;44.726;37.764;2023-02-02T01:28:45;2.47;;;1.15;;
75798;SDS011;65035;44.726;37.764;2023-02-02T01:29:48;2.45;;;1.25;;
75798;SDS011;65035;44.726;37.764;2023-02-02T01:30:51;3.03;;;1.30;;
75798;SDS011;65035;44.726;37.764;2023-02-02T01:31:56;3.00;;;1.08;;
75798;SDS011;65035;44.726;37.764;2023-02-02T01:32:59;2.03;;;0.73;;
75798;SDS011;65035;44.726;37.764;2023-02-02T01:34:01;2.58;;;1.15;;
75798;SDS011;65035;44.726;37.764;2023-02-02T01:35:04;2.90;;;1.50;;
75798;SDS011;65035;44.726;37.764;2023-02-02T01:36:09;2.10;;;0.98;;
75798;SDS011;65035;44.726;37.764;2023-02-02T01:37:13;2.38;;;1.25;;
75798;SDS011;65035;44.726;37.764;2023-02-02T01:38:16;2.45;;;1.45;;
75798;SDS011;65035;44.726;37.764;2023-02-02T01:39:19;2.72;;;0.80;;
75798;SDS011;65035;44.726;37.764;2023-02-02T01:40:22;2.88;;;0.95;;
75798;SDS011;65035;44.726;37.764;2023-02-02T01:41:25;2.40;;;1.15;;
75798;SDS011;65035;44.726;37.764;2023-02-02T01:42:29;2.22;;;1.13;;
75798;SDS011;65035;44.726;37.764;2023-02-02T01:45:00;3.10;;;1.17;;
75798;SDS011;65035;44.726;37.764;2023-02-02T01:46:15;2.50;;;1.38;;
75798;SDS011;65035;44.726;37.764;2023-02-02T01:47:24;2.45;;;1.17;;
75798;SDS011;65035;44.726;37.764;2023-02-02T01:48:31;1.90;;;0.80;;
75798;SDS011;65035;44.726;37.764;2023-02-02T01:49:36;3.15;;;1.48;;
75798;SDS011;65035;44.726;37.764;2023-02-02T01:50:40;3.05;;;1.20;;
75798;SDS011;65035;44.726;37.764;2023-02-02T01:52:55;2.28;;;1.20;;
75798;SDS011;65035;44.726;37.764;2023-02-02T01:54:02;2.38;;;0.90;;
75798;SDS011;65035;44.726;37.764;2023-02-02T01:55:09;2.33;;;1.23;;
75798;SDS011;65035;44.726;37.764;2023-02-02T01:56:14;2.45;;;1.20;;
75798;SDS011;65035;44.726;37.764;2023-02-02T01:57:38;2.38;;;0.82;;
75798;SDS011;65035;44.726;37.764;2023-02-02T01:58:47;2.08;;;0.90;;
75798;SDS011;65035;44.726;37.764;2023-02-02T01:59:50;2.75;;;1.52;;
75798;SDS011;65035;44.726;37.764;2023-02-02T02:00:55;2.00;;;1.00;;
75798;SDS011;65035;44.726;37.764;2023-02-02T02:01:58;2.47;;;0.80;;
75798;SDS011;65035;44.726;37.764;2023-02-02T02:03:04;1.90;;;0.80;;
75798;SDS011;65035;44.726;37.764;2023-02-02T02:04:12;2.33;;;1.15;;
75798;SDS011;65035;44.726;37.764;2023-02-02T02:05:20;2.08;;;1.05;;
75798;SDS011;65035;44.726;37.764;2023-02-02T02:06:27;3.15;;;1.35;;
75798;SDS011;65035;44.726;37.764;2023-02-02T02:09:58;2.85;;;1.02;;
75798;SDS011;65035;44.726;37.764;2023-02-02T02:11:01;2.00;;;1.08;;
75798;SDS011;65035;44.726;37.764;2023-02-02T02:12:11;2.55;;;1.40;;
75798;SDS011;65035;44.726;37.764;2023-02-02T02:13:16;2.13;;;1.05;;
75798;SDS011;65035;44.726;37.764;2023-02-02T02:14:22;2.00;;;0.73;;
75798;SDS011;65035;44.726;37.764;2023-02-02T02:15:48;3.25;;;1.38;;
75798;SDS011;65035;44.726;37.764;2023-02-02T02:17:25;1.77;;;0.80;;
75798;SDS011;65035;44.726;37.764;2023-02-02T02:20:53;2.20;;;0.77;;
75798;SDS011;65035;44.726;37.764;2023-02-02T02:22:12;1.95;;;1.35;;
75798;SDS011;65035;44.726;37.764;2023-02-02T02:36:16;1.65;;;0.70;;
75798;SDS011;65035;44.726;37.764;2023-02-02T02:40:37;1.60;;;0.73;;
75798;SDS011;65035;44.726;37.764;2023-02-02T02:41:45;2.40;;;1.10;;
75798;SDS011;65035;44.726;37.764;2023-02-02T02:42:56;1.90;;;0.70;;
75798;SDS011;65035;44.726;37.764;2023-02-02T02:44:05;2.50;;;0.65;;
75798;SDS011;65035;44.726;37.764;2023-02-02T02:45:12;2.58;;;0.98;;
75798;SDS011;65035;44.726;37.764;2023-02-02T02:46:15;1.52;;;0.82;;
75798;SDS011;65035;44.726;37.764;2023-02-02T02:47:18;2.35;;;0.95;;
75798;SDS011;65035;44.726;37.764;2023-02-02T02:48:22;1.60;;;0.55;;
75798;SDS011;65035;44.726;37.764;2023-02-02T02:49:24;1.80;;;0.75;;
75798;SDS011;65035;44.726;37.764;2023-02-02T02:50:27;2.10;;;0.85;;
75798;SDS011;65035;44.726;37.764;2023-02-02T02:51:48;2.03;;;0.75;;
75798;SDS011;65035;44.726;37.764;2023-02-02T02:53:13;2.60;;;1.75;;
75798;SDS011;65035;44.726;37.764;2023-02-02T02:54:24;2.22;;;0.65;;
75798;SDS011;65035;44.726;37.764;2023-02-02T02:56:05;2.53;;;0.77;;
75798;SDS011;65035;44.726;37.764;2023-02-02T02:58:57;1.92;;;1.15;;
75798;SDS011;65035;44.726;37.764;2023-02-02T03:01:42;2.15;;;0.68;;
75798;SDS011;65035;44.726;37.764;2023-02-02T03:06:32;1.42;;;0.38;;
75798;SDS011;65035;44.726;37.764;2023-02-02T03:08:39;2.20;;;1.02;;
75798;SDS011;65035;44.726;37.764;2023-02-02T03:09:24;1.90;;;0.93;;
75798;SDS011;65035;44.726;37.764;2023-02-02T03:10:34;1.70;;;0.65;;
75798;SDS011;65035;44.726;37.764;2023-02-02T03:11:39;1.55;;;0.50;;
75798;SDS011;65035;44.726;37.764;2023-02-02T03:12:43;2.20;;;0.55;;
75798;SDS011;65035;44.726;37.764;2023-02-02T03:13:47;1.65;;;0.50;;
75798;SDS011;65035;44.726;37.764;2023-02-02T03:14:50;2.78;;;0.95;;
75798;SDS011;65035;44.726;37.764;2023-02-02T03:15:53;2.47;;;0.55;;
75798;SDS011;65035;44.726;37.764;2023-02-02T03:16:56;2.53;;;0.82;;
75798;SDS011;65035;44.726;37.764;2023-02-02T03:17:59;2.38;;;0.95;;
75798;SDS011;65035;44.726;37.764;2023-02-02T03:19:02;2.72;;;0.98;;
75798;SDS011;65035;44.726;37.764;2023-02-02T03:20:07;1.83;;;0.93;;
75798;SDS011;65035;44.726;37.764;2023-02-02T03:21:13;1.67;;;0.77;;
75798;SDS011;65035;44.726;37.764;2023-02-02T03:22:16;2.38;;;1.40;;
75798;SDS011;65035;44.726;37.764;2023-02-02T03:23:19;1.85;;;1.00;;
75798;SDS011;65035;44.726;37.764;2023-02-02T03:24:21;1.92;;;0.57;;
75798;SDS011;65035;44.726;37.764;2023-02-02T03:25:24;2.10;;;0.38;;
75798;SDS011;65035;44.726;37.764;2023-02-02T03:26:27;1.70;;;0.68;;
75798;SDS011;65035;44.726;37.764;2023-02-02T03:27:30;2.45;;;0.80;;
75798;SDS011;65035;44.726;37.764;2023-02-02T03:28:33;1.90;;;0.70;;
75798;SDS011;65035;44.726;37.764;2023-02-02T03:29:40;2.10;;;0.60;;
75798;SDS011;65035;44.726;37.764;2023-02-02T03:30:43;1.90;;;0.85;;
75798;SDS011;65035;44.726;37.764;2023-02-02T03:31:47;1.90;;;1.42;;
75798;SDS011;65035;44.726;37.764;2023-02-02T03:32:50;1.83;;;0.55;;
75798;SDS011;65035;44.726;37.764;2023-02-02T03:33:54;2.28;;;1.00;;
75798;SDS011;65035;44.726;37.764;2023-02-02T03:34:57;2.03;;;0.98;;
75798;SDS011;65035;44.726;37.764;2023-02-02T03:36:00;3.05;;;0.43;;
75798;SDS011;65035;44.726;37.764;2023-02-02T03:37:03;1.77;;;0.57;;
75798;SDS011;65035;44.726;37.764;2023-02-02T03:38:05;1.77;;;0.50;;
75798;SDS011;65035;44.726;37.764;2023-02-02T03:39:08;1.90;;;0.35;;
75798;SDS011;65035;44.726;37.764;2023-02-02T03:40:11;2.28;;;0.47;;
75798;SDS011;65035;44.726;37.764;2023-02-02T03:41:17;2.85;;;0.73;;
75798;SDS011;65035;44.726;37.764;2023-02-02T03:42:19;2.90;;;1.00;;
75798;SDS011;65035;44.726;37.764;2023-02-02T03:43:22;2.22;;;0.80;;
75798;SDS011;65035;44.726;37.764;2023-02-02T03:45:28;2.17;;;0.98;;
75798;SDS011;65035;44.726;37.764;2023-02-02T03:46:33;2.05;;;0.90;;
75798;SDS011;65035;44.726;37.764;2023-02-02T03:47:36;2.50;;;0.22;;
75798;SDS011;65035;44.726;37.764;2023-02-02T03:48:39;2.83;;;0.82;;
75798;SDS011;65035;44.726;37.764;2023-02-02T03:49:42;3.22;;;0.85;;
75798;SDS011;65035;44.726;37.764;2023-02-02T03:50:44;5.32;;;1.27;;
75798;SDS011;65035;44.726;37.764;2023-02-02T03:51:47;3.58;;;1.00;;
75798;SDS011;65035;44.726;37.764;2023-02-02T03:52:50;1.88;;;0.63;;
75798;SDS011;65035;44.726;37.764;2023-02-02T03:53:52;3.83;;;0.93;;
75798;SDS011;65035;44.726;37.764;2023-02-02T03:54:55;2.50;;;1.20;;
75798;SDS011;65035;44.726;37.764;2023-02-02T03:55:58;3.47;;;0.75;;
75798;SDS011;65035;44.726;37.764;2023-02-02T03:57:01;3.03;;;0.93;;
75798;SDS011;65035;44.726;37.764;2023-02-02T03:58:03;3.53;;;0.75;;
75798;SDS011;65035;44.726;37.764;2023-02-02T03:59:06;1.90;;;0.40;;
75798;SDS011;65035;44.726;37.764;2023-02-02T04:00:09;3.03;;;0.60;;
75798;SDS011;65035;44.726;37.764;2023-02-02T04:01:15;3.90;;;1.63;;
75798;SDS011;65035;44.726;37.764;2023-02-02T04:02:18;2.20;;;0.85;;
75798;SDS011;65035;44.726;37.764;2023-02-02T04:03:20;3.55;;;0.80;;
75798;SDS011;65035;44.726;37.764;2023-02-02T04:04:23;2.80;;;0.98;;
75798;SDS011;65035;44.726;37.764;2023-02-02T04:05:26;4.13;;;0.70;;
75798;SDS011;65035;44.726;37.764;2023-02-02T04:06:29;106.55;;;18.13;;
75798;SDS011;65035;44.726;37.764;2023-02-02T04:07:32;125.40;;;23.42;;
75798;SDS011;65035;44.726;37.764;2023-02-02T04:08:35;78.22;;;14.35;;
75798;SDS011;65035;44.726;37.764;2023-02-02T04:09:38;68.40;;;14.13;;
75798;SDS011;65035;44.726;37.764;2023-02-02T04:10:40;69.57;;;12.13;;
75798;SDS011;65035;44.726;37.764;2023-02-02T04:11:43;76.68;;;13.30;;
75798;SDS011;65035;44.726;37.764;2023-02-02T04:12:46;59.85;;;11.55;;
75798;SDS011;65035;44.726;37.764;2023-02-02T04:13:52;63.55;;;10.95;;
75798;SDS011;65035;44.726;37.764;2023-02-02T04:14:55;54.40;;;11.45;;
75798;SDS011;65035;44.726;37.764;2023-02-02T04:15:58;60.47;;;10.60;;
75798;SDS011;65035;44.726;37.764;2023-02-02T04:17:02;40.63;;;8.52;;
75798;SDS011;65035;44.726;37.764;2023-02-02T04:18:05;32.70;;;7.20;;
75798;SDS011;65035;44.726;37.764;2023-02-02T04:19:08;35.90;;;7.28;;
75798;SDS011;65035;44.726;37.764;2023-02-02T04:20:10;29.80;;;5.95;;
75798;SDS011;65035;44.726;37.764;2023-02-02T04:21:13;29.02;;;5.88;;
75798;SDS011;65035;44.726;37.764;2023-02-02T04:22:16;30.80;;;6.50;;
75798;SDS011;65035;44.726;37.764;2023-02-02T04:23:19;30.23;;;4.97;;
75798;SDS011;65035;44.726;37.764;2023-02-02T04:24:21;19.52;;;4.75;;
75798;SDS011;65035;44.726;37.764;2023-02-02T04:25:24;25.90;;;5.43;;
75798;SDS011;65035;44.726;37.764;2023-02-02T04:26:27;22.77;;;5.15;;
75798;SDS011;65035;44.726;37.764;2023-02-02T04:27:30;23.77;;;4.75;;
75798;SDS011;65035;44.726;37.764;2023-02-02T04:28:35;24.00;;;5.28;;
75798;SDS011;65035;44.726;37.764;2023-02-02T04:29:38;29.27;;;5.18;;
75798;SDS011;65035;44.726;37.764;2023-02-02T04:30:40;33.05;;;6.20;;
75798;SDS011;65035;44.726;37.764;2023-02-02T04:31:43;26.00;;;5.00;;
75798;SDS011;65035;44.726;37.764;2023-02-02T04:32:46;25.08;;;5.35;;
75798;SDS011;65035;44.726;37.764;2023-02-02T04:33:49;26.65;;;4.55;;
75798;SDS011;65035;44.726;37.764;2023-02-02T04:34:51;23.60;;;4.78;;
75798;SDS011;65035;44.726;37.764;2023-02-02T04:35:54;23.00;;;4.32;;
75798;SDS011;65035;44.726;37.764;2023-02-02T04:36:57;26.55;;;5.00;;
75798;SDS011;65035;44.726;37.764;2023-02-02T04:38:00;24.38;;;3.70;;
75798;SDS011;65035;44.726;37.764;2023-02-02T04:39:03;18.08;;;4.43;;
75798;SDS011;65035;44.726;37.764;2023-02-02T04:40:06;20.55;;;5.20;;
75798;SDS011;65035;44.726;37.764;2023-02-02T04:41:10;23.90;;;4.90;;
75798;SDS011;65035;44.726;37.764;2023-02-02T04:42:15;23.75;;;5.00;;
75798;SDS011;65035;44.726;37.764;2023-02-02T04:43:18;17.25;;;3.90;;
75798;SDS011;65035;44.726;37.764;2023-02-02T04:44:21;19.77;;;4.15;;
75798;SDS011;65035;44.726;37.764;2023-02-02T04:45:26;14.88;;;4.38;;
75798;SDS011;65035;44.726;37.764;2023-02-02T04:46:29;20.05;;;3.72;;
75798;SDS011;65035;44.726;37.764;2023-02-02T04:47:33;16.90;;;3.92;;
75798;SDS011;65035;44.726;37.764;2023-02-02T04:48:36;19.73;;;3.80;;
75798;SDS011;65035;44.726;37.764;2023-02-02T04:49:39;22.95;;;4.63;;
75798;SDS011;65035;44.726;37.764;2023-02-02T04:50:41;17.55;;;4.22;;
75798;SDS011;65035;44.726;37.764;2023-02-02T04:51:44;17.65;;;4.07;;
75798;SDS011;65035;44.726;37.764;2023-02-02T04:52:47;17.15;;;3.20;;
75798;SDS011;65035;44.726;37.764;2023-02-02T04:53:50;16.70;;;4.03;;
75798;SDS011;65035;44.726;37.764;2023-02-02T04:54:52;18.60;;;3.72;;
75798;SDS011;65035;44.726;37.764;2023-02-02T04:55:55;17.85;;;3.30;;
75798;SDS011;65035;44.726;37.764;2023-02-02T04:56:58;18.63;;;3.60;;
75798;SDS011;65035;44.726;37.764;2023-02-02T04:58:01;10.90;;;3.03;;
75798;SDS011;65035;44.726;37.764;2023-02-02T04:59:03;15.65;;;2.92;;
75798;SDS011;65035;44.726;37.764;2023-02-02T05:00:06;12.05;;;3.15;;
75798;SDS011;65035;44.726;37.764;2023-02-02T05:01:13;14.75;;;3.53;;
75798;SDS011;65035;44.726;37.764;2023-02-02T05:02:18;15.57;;;3.15;;
75798;SDS011;65035;44.726;37.764;2023-02-02T05:03:20;12.10;;;2.67;;
75798;SDS011;65035;44.726;37.764;2023-02-02T05:04:23;13.68;;;3.10;;
75798;SDS011;65035;44.726;37.764;2023-02-02T05:05:26;17.65;;;4.00;;
75798;SDS011;65035;44.726;37.764;2023-02-02T05:06:29;16.40;;;2.80;;
75798;SDS011;65035;44.726;37.764;2023-02-02T05:07:32;16.23;;;3.75;;
75798;SDS011;65035;44.726;37.764;2023-02-02T05:08:35;14.02;;;3.22;;
75798;SDS011;65035;44.726;37.764;2023-02-02T05:09:38;10.85;;;3.35;;
75798;SDS011;65035;44.726;37.764;2023-02-02T05:10:40;14.32;;;2.47;;
75798;SDS011;65035;44.726;37.764;2023-02-02T05:11:46;14.40;;;2.92;;
75798;SDS011;65035;44.726;37.764;2023-02-02T05:12:50;14.45;;;3.25;;
75798;SDS011;65035;44.726;37.764;2023-02-02T05:13:57;12.20;;;3.00;;
75798;SDS011;65035;44.726;37.764;2023-02-02T05:15:00;14.52;;;2.90;;
75798;SDS011;65035;44.726;37.764;2023-02-02T05:16:06;12.02;;;2.85;;
75798;SDS011;65035;44.726;37.764;2023-02-02T05:17:09;12.20;;;3.28;;
75798;SDS011;65035;44.726;37.764;2023-02-02T05:18:12;15.07;;;2.97;;
75798;SDS011;65035;44.726;37.764;2023-02-02T05:19:14;10.13;;;2.33;;
75798;SDS011;65035;44.726;37.764;2023-02-02T05:20:18;12.13;;;2.92;;
75798;SDS011;65035;44.726;37.764;2023-02-02T05:21:21;10.73;;;2.50;;
75798;SDS011;65035;44.726;37.764;2023-02-02T05:22:24;10.93;;;2.38;;
75798;SDS011;65035;44.726;37.764;2023-02-02T05:23:27;14.77;;;2.80;;
75798;SDS011;65035;44.726;37.764;2023-02-02T05:24:30;12.75;;;2.15;;
75798;SDS011;65035;44.726;37.764;2023-02-02T05:25:32;9.77;;;1.98;;
75798;SDS011;65035;44.726;37.764;2023-02-02T05:26:35;11.88;;;1.90;;
75798;SDS011;65035;44.726;37.764;2023-02-02T05:27:38;8.90;;;2.15;;
75798;SDS011;65035;44.726;37.764;2023-02-02T05:28:45;12.25;;;2.13;;
75798;SDS011;65035;44.726;37.764;2023-02-02T05:29:48;10.70;;;2.63;;
75798;SDS011;65035;44.726;37.764;2023-02-02T05:30:50;10.18;;;2.38;;
75798;SDS011;65035;44.726;37.764;2023-02-02T05:31:54;13.10;;;2.13;;
75798;SDS011;65035;44.726;37.764;2023-02-02T05:32:57;10.30;;;2.20;;
75798;SDS011;65035;44.726;37.764;2023-02-02T05:33:59;9.82;;;2.22;;
75798;SDS011;65035;44.726;37.764;2023-02-02T05:35:02;10.27;;;2.25;;
75798;SDS011;65035;44.726;37.764;2023-02-02T05:36:06;8.95;;;2.13;;
75798;SDS011;65035;44.726;37.764;2023-02-02T05:37:09;11.60;;;2.10;;
75798;SDS011;65035;44.726;37.764;2023-02-02T05:38:12;11.10;;;2.33;;
75798;SDS011;65035;44.726;37.764;2023-02-02T05:39:15;9.20;;;2.10;;
75798;SDS011;65035;44.726;37.764;2023-02-02T05:40:18;10.85;;;1.85;;
75798;SDS011;65035;44.726;37.764;2023-02-02T05:41:20;7.30;;;1.58;;
75798;SDS011;65035;44.726;37.764;2023-02-02T05:42:23;10.23;;;2.55;;
75798;SDS011;65035;44.726;37.764;2023-02-02T05:43:26;9.02;;;2.22;;
75798;SDS011;65035;44.726;37.764;2023-02-02T05:44:31;8.70;;;2.33;;
75798;SDS011;65035;44.726;37.764;2023-02-02T05:45:33;8.75;;;1.77;;
75798;SDS011;65035;44.726;37.764;2023-02-02T05:46:36;10.98;;;2.65;;
75798;SDS011;65035;44.726;37.764;2023-02-02T05:47:39;8.48;;;2.08;;
75798;SDS011;65035;44.726;37.764;2023-02-02T05:48:42;8.40;;;1.63;;
75798;SDS011;65035;44.726;37.764;2023-02-02T05:49:44;10.15;;;2.35;;
75798;SDS011;65035;44.726;37.764;2023-02-02T05:50:53;8.45;;;2.08;;
75798;SDS011;65035;44.726;37.764;2023-02-02T05:51:59;7.22;;;1.58;;
75798;SDS011;65035;44.726;37.764;2023-02-02T05:53:02;7.28;;;2.25;;
75798;SDS011;65035;44.726;37.764;2023-02-02T05:54:05;8.52;;;1.88;;
75798;SDS011;65035;44.726;37.764;2023-02-02T05:55:08;8.23;;;1.67;;
75798;SDS011;65035;44.726;37.764;2023-02-02T05:56:12;10.70;;;1.92;;
75798;SDS011;65035;44.726;37.764;2023-02-02T05:57:17;7.40;;;2.00;;
75798;SDS011;65035;44.726;37.764;2023-02-02T05:58:20;9.90;;;2.00;;
75798;SDS011;65035;44.726;37.764;2023-02-02T05:59:23;7.40;;;1.95;;
75798;SDS011;65035;44.726;37.764;2023-02-02T06:00:26;7.70;;;2.67;;
75798;SDS011;65035;44.726;37.764;2023-02-02T06:01:29;9.70;;;2.10;;
75798;SDS011;65035;44.726;37.764;2023-02-02T06:02:32;9.35;;;1.80;;
75798;SDS011;65035;44.726;37.764;2023-02-02T06:03:34;7.63;;;1.75;;
75798;SDS011;65035;44.726;37.764;2023-02-02T06:04:37;8.55;;;1.63;;
75798;SDS011;65035;44.726;37.764;2023-02-02T06:05:40;5.80;;;1.40;;
75798;SDS011;65035;44.726;37.764;2023-02-02T06:06:46;6.90;;;1.92;;
75798;SDS011;65035;44.726;37.764;2023-02-02T06:07:49;6.80;;;1.65;;
75798;SDS011;65035;44.726;37.764;2023-02-02T06:08:51;6.90;;;1.58;;
75798;SDS011;65035;44.726;37.764;2023-02-02T06:09:54;5.15;;;1.73;;
75798;SDS011;65035;44.726;37.764;2023-02-02T06:10:57;5.22;;;1.77;;
75798;SDS011;65035;44.726;37.764;2023-02-02T06:12:00;8.55;;;1.67;;
75798;SDS011;65035;44.726;37.764;2023-02-02T06:13:05;5.25;;;1.02;;
75798;SDS011;65035;44.726;37.764;2023-02-02T06:14:08;6.82;;;2.00;;
75798;SDS011;65035;44.726;37.764;2023-02-02T06:15:11;7.10;;;1.83;;
75798;SDS011;65035;44.726;37.764;2023-02-02T06:16:13;5.68;;;2.00;;
75798;SDS011;65035;44.726;37.764;2023-02-02T06:17:16;5.70;;;1.58;;
75798;SDS011;65035;44.726;37.764;2023-02-02T06:18:19;7.95;;;1.63;;
75798;SDS011;65035;44.726;37.764;2023-02-02T06:19:22;8.20;;;1.55;;
75798;SDS011;65035;44.726;37.764;2023-02-02T06:20:24;6.47;;;1.60;;
75798;SDS011;65035;44.726;37.764;2023-02-02T06:21:30;6.63;;;1.95;;
75798;SDS011;65035;44.726;37.764;2023-02-02T06:22:33;5.88;;;1.73;;
75798;SDS011;65035;44.726;37.764;2023-02-02T06:23:36;5.95;;;1.70;;
75798;SDS011;65035;44.726;37.764;2023-02-02T06:24:39;8.27;;;2.13;;
75798;SDS011;65035;44.726;37.764;2023-02-02T06:25:42;5.22;;;1.42;;
75798;SDS011;65035;44.726;37.764;2023-02-02T06:26:44;5.80;;;1.40;;
75798;SDS011;65035;44.726;37.764;2023-02-02T06:27:54;5.07;;;1.65;;
75798;SDS011;65035;44.726;37.764;2023-02-02T06:30:03;4.63;;;1.05;;
75798;SDS011;65035;44.726;37.764;2023-02-02T06:31:07;5.50;;;1.25;;
75798;SDS011;65035;44.726;37.764;2023-02-02T06:32:12;4.55;;;1.75;;
75798;SDS011;65035;44.726;37.764;2023-02-02T06:33:15;7.93;;;1.42;;
75798;SDS011;65035;44.726;37.764;2023-02-02T06:34:17;5.78;;;1.17;;
75798;SDS011;65035;44.726;37.764;2023-02-02T06:35:20;4.43;;;1.25;;
75798;SDS011;65035;44.726;37.764;2023-02-02T06:36:24;4.35;;;1.05;;
75798;SDS011;65035;44.726;37.764;2023-02-02T06:37:28;6.72;;;1.08;;
75798;SDS011;65035;44.726;37.764;2023-02-02T06:38:31;5.28;;;2.00;;
75798;SDS011;65035;44.726;37.764;2023-02-02T06:39:34;4.63;;;1.15;;
75798;SDS011;65035;44.726;37.764;2023-02-02T06:40:37;4.82;;;1.40;;
75798;SDS011;65035;44.726;37.764;2023-02-02T06:41:40;4.32;;;1.38;;
75798;SDS011;65035;44.726;37.764;2023-02-02T06:42:43;5.78;;;1.13;;
75798;SDS011;65035;44.726;37.764;2023-02-02T06:43:46;5.55;;;1.10;;
75798;SDS011;65035;44.726;37.764;2023-02-02T06:45:51;4.80;;;1.58;;
75798;SDS011;65035;44.726;37.764;2023-02-02T06:46:54;4.90;;;1.40;;
75798;SDS011;65035;44.726;37.764;2023-02-02T06:47:58;5.13;;;2.05;;
75798;SDS011;65035;44.726;37.764;2023-02-02T06:49:09;4.22;;;1.08;;
75798;SDS011;65035;44.726;37.764;2023-02-02T06:50:12;4.82;;;1.23;;
75798;SDS011;65035;44.726;37.764;2023-02-02T06:51:17;6.72;;;1.75;;
75798;SDS011;65035;44.726;37.764;2023-02-02T06:52:20;4.97;;;1.27;;
75798;SDS011;65035;44.726;37.764;2023-02-02T06:53:22;4.45;;;1.67;;
75798;SDS011;65035;44.726;37.764;2023-02-02T06:54:31;3.08;;;1.42;;
75798;SDS011;65035;44.726;37.764;2023-02-02T06:55:38;4.13;;;0.70;;
75798;SDS011;65035;44.726;37.764;2023-02-02T06:56:41;4.03;;;1.33;;
75798;SDS011;65035;44.726;37.764;2023-02-02T06:57:44;4.68;;;1.05;;
75798;SDS011;65035;44.726;37.764;2023-02-02T06:59:53;4.70;;;1.27;;
75798;SDS011;65035;44.726;37.764;2023-02-02T07:01:02;4.20;;;1.05;;
75798;SDS011;65035;44.726;37.764;2023-02-02T07:02:10;6.70;;;0.98;;